Time;durP1;ratioP1;P1;durP2;ratioP2;P2;SDS_P1;SDS_P2;PMS_P1;PMS_P2;Temp;Humidity;BMP_temperature;BMP_pressure;BME280_temperature;BME280_humidity;BME280_pressure;Samples;Min_cycle;Max_cycle;Signal;HPM_P1;HPM_P2
2023/07/15 00:01:23;;;;;;;4.32;2.30;;;;;;;21.72;48.23;100358.72;6135300;23;20018;-72
2023/07/15 00:03:49;;;;;;;5.05;2.30;;;;;;;21.71;48.13;100343.69;6185085;23;20000;-71
2023/07/15 00:06:16;;;;;;;3.33;2.40;;;;;;;21.65;48.35;100354.75;6161035;23;20001;-71
2023/07/15 00:08:42;;;;;;;6.60;2.22;;;;;;;21.60;48.63;100360.38;6185017;23;20001;-71
2023/07/15 00:11:20;;;;;;;4.97;2.47;;;;;;;21.61;48.60;100351.44;6185432;23;20012;-71
2023/07/15 00:13:45;;;;;;;6.40;2.20;;;;;;;21.58;48.95;100354.28;6185307;23;20430;-71
2023/07/15 00:16:10;;;;;;;4.38;2.45;;;;;;;21.62;48.38;100357.59;6160597;23;20005;-72
2023/07/15 00:18:36;;;;;;;4.30;2.20;;;;;;;21.61;48.26;100348.75;6134848;23;20015;-71
2023/07/15 00:21:15;;;;;;;7.72;2.50;;;;;;;21.65;48.38;100353.88;6185726;23;20051;-71
2023/07/15 00:23:40;;;;;;;3.00;1.88;;;;;;;21.68;47.96;100346.56;6184402;23;20056;-71
2023/07/15 00:26:07;;;;;;;4.45;2.70;;;;;;;21.72;48.05;100332.06;6136386;23;20091;-71
2023/07/15 00:28:33;;;;;;;4.20;2.10;;;;;;;21.76;47.11;100330.88;6211886;23;20415;-71
2023/07/15 00:30:59;;;;;;;3.97;2.15;;;;;;;21.76;47.40;100338.88;6136488;23;20016;-71
2023/07/15 00:33:24;;;;;;;9.98;2.50;;;;;;;21.74;47.46;100338.13;6136385;23;20016;-71
2023/07/15 00:35:50;;;;;;;6.47;2.40;;;;;;;21.77;46.88;100337.09;6186537;23;20035;-72
2023/07/15 00:38:16;;;;;;;3.60;2.30;;;;;;;21.74;47.30;100340.81;6161005;23;20331;-71
2023/07/15 00:40:46;;;;;;;5.32;2.28;;;;;;;21.70;47.78;100339.28;6138431;23;20008;-71
2023/07/15 00:43:49;;;;;;;5.30;2.17;;;;;;;21.70;48.02;100347.28;6163467;23;20013;-71
2023/07/15 00:46:15;;;;;;;5.65;2.10;;;;;;;21.66;47.67;100331.59;6188119;23;20018;-71
2023/07/15 00:48:52;;;;;;;5.90;2.25;;;;;;;21.57;48.09;100359.72;6187754;23;20036;-71
2023/07/15 00:51:19;;;;;;;3.50;2.20;;;;;;;21.50;48.46;100356.56;6188146;23;20071;-71
2023/07/15 00:53:44;;;;;;;5.53;2.38;;;;;;;21.46;48.08;100353.25;6186078;23;20116;-71
2023/07/15 00:56:13;;;;;;;3.28;2.00;;;;;;;21.43;48.39;100356.13;6137891;23;20036;-71
2023/07/15 00:58:39;;;;;;;5.53;2.13;;;;;;;21.43;48.09;100350.81;6186901;23;20009;-71
2023/07/15 01:01:06;;;;;;;4.97;2.35;;;;;;;21.60;47.07;100359.53;6137687;23;20143;-71
2023/07/15 01:03:32;;;;;;;5.90;2.08;;;;;;;21.62;47.58;100349.59;6162371;23;20035;-72
2023/07/15 01:05:58;;;;;;;3.60;2.10;;;;;;;21.63;47.27;100362.84;6162446;23;20023;-71
2023/07/15 01:08:24;;;;;;;4.55;2.00;;;;;;;21.61;48.00;100362.09;6186852;23;20406;-71
2023/07/15 01:10:49;;;;;;;4.05;1.98;;;;;;;21.58;47.64;100369.44;6137770;23;20023;-71
2023/07/15 01:13:14;;;;;;;3.33;2.00;;;;;;;21.56;47.38;100364.19;6137194;23;20090;-71
2023/07/15 01:15:40;;;;;;;6.68;2.35;;;;;;;21.51;47.64;100376.09;6137074;23;20349;-71
2023/07/15 01:18:06;;;;;;;6.05;2.30;;;;;;;21.45;47.77;100367.53;6138190;23;20426;-71
2023/07/15 01:20:32;;;;;;;2.88;2.10;;;;;;;21.39;48.11;100367.06;6163299;23;20423;-71
2023/07/15 01:22:57;;;;;;;4.70;2.03;;;;;;;21.32;48.59;100365.75;6138190;23;20015;-71
2023/07/15 01:25:23;;;;;;;3.40;2.15;;;;;;;21.23;49.09;100370.75;6137182;23;20353;-71
2023/07/15 01:27:49;;;;;;;5.93;2.40;;;;;;;21.13;49.10;100353.59;6186721;23;20240;-71
2023/07/15 01:30:15;;;;;;;4.22;2.40;;;;;;;21.08;49.58;100364.56;6162660;23;20012;-71
2023/07/15 01:32:40;;;;;;;4.72;2.28;;;;;;;21.00;49.64;100358.84;6162469;23;20407;-71
2023/07/15 01:35:07;;;;;;;4.50;2.30;;;;;;;20.95;49.51;100368.97;6134975;23;20012;-71
2023/07/15 01:37:33;;;;;;;5.93;2.47;;;;;;;20.85;50.15;100359.84;6138652;23;20008;-71
2023/07/15 01:39:58;;;;;;;3.45;2.20;;;;;;;20.78;50.07;100359.38;6187044;23;20008;-71
2023/07/15 01:42:24;;;;;;;4.10;2.17;;;;;;;20.72;50.81;100363.25;6187241;23;20032;-71
2023/07/15 01:44:49;;;;;;;5.20;2.30;;;;;;;20.65;50.87;100367.22;6162237;23;20012;-71
2023/07/15 01:47:14;;;;;;;5.40;2.72;;;;;;;20.55;50.94;100363.41;6136768;23;20005;-71
2023/07/15 01:49:42;;;;;;;3.55;2.30;;;;;;;20.46;51.16;100359.50;6137586;23;20015;-71
2023/07/15 01:52:08;;;;;;;4.18;2.38;;;;;;;20.40;51.60;100352.75;6161709;23;20020;-68
2023/07/15 01:54:33;;;;;;;5.45;2.35;;;;;;;20.33;52.37;100362.06;6161802;23;20024;-68
2023/07/15 01:56:59;;;;;;;6.72;2.33;;;;;;;20.22;53.18;100364.50;6186760;23;20148;-68
2023/07/15 01:59:24;;;;;;;4.57;2.47;;;;;;;20.20;52.81;100361.06;6160527;23;20082;-68
2023/07/15 02:01:50;;;;;;;3.97;2.30;;;;;;;20.14;53.08;100366.75;6159423;23;20020;-68
2023/07/15 02:04:16;;;;;;;5.30;2.35;;;;;;;20.10;53.28;100373.19;6161206;23;20008;-69
2023/07/15 02:06:41;;;;;;;9.80;3.22;;;;;;;20.02;53.04;100366.53;6161753;23;20390;-68
2023/07/15 02:09:08;;;;;;;6.72;2.92;;;;;;;19.94;53.78;100368.81;6160387;23;20008;-68
2023/07/15 02:11:34;;;;;;;4.70;2.53;;;;;;;19.77;54.56;100368.88;6137040;23;20004;-68
2023/07/15 02:14:00;;;;;;;5.97;2.60;;;;;;;19.65;55.38;100368.66;6137551;23;20346;-68
2023/07/15 02:16:26;;;;;;;5.25;2.03;;;;;;;19.72;54.33;100363.84;6212793;23;19996;-71
2023/07/15 02:18:51;;;;;;;4.65;2.50;;;;;;;19.61;55.02;100368.91;6136828;23;20009;-71
2023/07/15 02:21:18;;;;;;;4.78;2.67;;;;;;;19.59;55.16;100365.50;6135888;23;20732;-71
2023/07/15 02:23:44;;;;;;;5.72;2.33;;;;;;;19.47;55.51;100370.56;6137889;23;20012;-70
2023/07/15 02:26:09;;;;;;;12.18;2.28;;;;;;;19.43;56.02;100366.34;6162351;23;20035;-71
2023/07/15 02:28:37;;;;;;;5.88;2.78;;;;;;;19.31;56.84;100370.56;6138414;23;20067;-71
2023/07/15 02:31:04;;;;;;;3.70;2.33;;;;;;;19.33;56.07;100375.78;6213706;23;20031;-70
2023/07/15 02:33:29;;;;;;;5.90;2.60;;;;;;;19.12;57.07;100376.03;6161404;23;20391;-70
2023/07/15 02:35:55;;;;;;;3.58;2.38;;;;;;;19.21;57.08;100378.19;6186747;23;20036;-70
2023/07/15 02:38:21;;;;;;;4.85;2.53;;;;;;;19.01;57.71;100376.63;6187451;23;20008;-70
2023/07/15 02:40:50;;;;;;;4.28;2.00;;;;;;;19.07;57.33;100390.50;6136828;23;20431;-70
2023/07/15 02:43:15;;;;;;;4.70;2.22;;;;;;;18.93;58.35;100384.13;6161249;23;20039;-70
2023/07/15 02:45:41;;;;;;;5.10;2.47;;;;;;;19.00;57.58;100374.91;6137314;23;20276;-70
2023/07/15 02:48:06;;;;;;;4.60;2.42;;;;;;;18.79;58.95;100373.38;6137005;23;20028;-70
2023/07/15 02:50:32;;;;;;;9.50;2.60;;;;;;;18.86;59.87;100374.75;6135181;23;20015;-70
2023/07/15 02:52:58;;;;;;;6.70;2.40;;;;;;;18.69;59.78;100373.88;6160709;23;20419;-70
2023/07/15 02:55:24;;;;;;;7.13;2.80;;;;;;;18.67;59.14;100383.69;6184020;23;20017;-70
2023/07/15 02:57:50;;;;;;;4.95;2.63;;;;;;;18.55;59.98;100367.56;6136407;23;20004;-70
2023/07/15 03:00:15;;;;;;;6.68;2.47;;;;;;;18.55;60.14;100378.19;6160694;23;20019;-70
2023/07/15 03:02:47;;;;;;;6.60;2.53;;;;;;;18.46;60.06;100375.09;6161119;23;20015;-71
2023/07/15 03:05:13;;;;;;;4.13;2.65;;;;;;;18.50;59.70;100376.66;6186057;23;20117;-70
2023/07/15 03:07:44;;;;;;;4.68;2.70;;;;;;;18.23;61.74;100375.41;6184843;23;20000;-70
2023/07/15 03:10:14;;;;;;;5.85;2.42;;;;;;;18.32;60.68;100377.59;6137426;23;20328;-70
2023/07/15 03:12:40;;;;;;;;;;;;;;;18.48;59.11;100377.66;6161105;23;20024;-70
2023/07/15 03:15:06;;;;;;;7.35;2.83;;;;;;;18.24;61.88;100371.81;6210308;23;19983;-70
2023/07/15 03:17:35;;;;;;;4.07;2.40;;;;;;;18.07;62.81;100362.91;6135325;23;20096;-70
2023/07/15 03:20:05;;;;;;;5.43;2.57;;;;;;;17.95;63.44;100367.06;6162048;23;20005;-71
2023/07/15 03:22:31;;;;;;;6.45;2.63;;;;;;;17.94;63.09;100369.78;6161257;23;20008;-70
2023/07/15 03:24:56;;;;;;;5.70;2.70;;;;;;;17.95;62.78;100367.06;6135652;23;20280;-70
2023/07/15 03:27:22;;;;;;;4.65;2.45;;;;;;;17.97;62.79;100369.63;6137224;23;20055;-70
2023/07/15 03:29:49;;;;;;;4.93;3.05;;;;;;;17.76;63.29;100358.28;6136634;23;20024;-71
2023/07/15 03:32:14;;;;;;;4.47;2.63;;;;;;;17.84;62.78;100362.28;6161891;23;20009;-71
2023/07/15 03:34:40;;;;;;;5.43;2.42;;;;;;;17.69;64.68;100372.78;6161588;23;20039;-71
2023/07/15 03:37:05;;;;;;;5.10;2.35;;;;;;;17.60;65.68;100366.97;6160623;23;20016;-70
2023/07/15 03:39:31;;;;;;;10.65;2.63;;;;;;;17.66;65.97;100369.31;6136171;23;20070;-70
2023/07/15 03:41:56;;;;;;;4.72;2.65;;;;;;;17.57;66.89;100374.19;6136780;23;20384;-70
2023/07/15 03:44:21;;;;;;;6.00;2.85;;;;;;;17.50;65.39;100384.25;6185911;23;20372;-71
2023/07/15 03:46:47;;;;;;;4.93;2.70;;;;;;;17.55;65.74;100381.38;6136338;23;20108;-70
2023/07/15 03:49:13;;;;;;;9.65;3.00;;;;;;;17.48;65.39;100378.16;6160017;23;20015;-71
2023/07/15 03:51:38;;;;;;;4.85;2.60;;;;;;;17.44;65.70;100374.81;6136103;23;20012;-71
2023/07/15 03:54:05;;;;;;;4.70;2.70;;;;;;;17.56;64.25;100378.66;6134626;23;20016;-69
2023/07/15 03:56:31;;;;;;;5.57;2.60;;;;;;;17.39;65.49;100373.31;6160515;23;20023;-69
2023/07/15 03:58:58;;;;;;;6.15;2.70;;;;;;;17.29;66.18;100381.69;6160972;23;20071;-69
2023/07/15 04:01:23;;;;;;;5.38;2.45;;;;;;;17.34;65.78;100372.66;6160013;23;20506;-69
2023/07/15 04:03:49;;;;;;;6.53;2.50;;;;;;;17.33;66.54;100370.97;6134874;23;20013;-69
2023/07/15 04:06:14;;;;;;;5.05;2.53;;;;;;;17.33;66.29;100376.25;6135636;23;20090;-70
2023/07/15 04:08:39;;;;;;;3.65;2.60;;;;;;;17.42;66.59;100374.00;6134775;23;20009;-71
2023/07/15 04:11:08;;;;;;;4.30;2.75;;;;;;;17.55;66.64;100373.44;6159540;23;20017;-70
2023/07/15 04:13:34;;;;;;;5.63;2.40;;;;;;;17.78;65.23;100364.34;6184253;23;20327;-70
2023/07/15 04:15:59;;;;;;;8.30;3.00;;;;;;;18.05;64.81;100363.97;6184303;23;20013;-71
2023/07/15 04:18:25;;;;;;;7.55;2.38;;;;;;;18.37;63.50;100372.06;6184654;23;20389;-70
2023/07/15 04:20:50;;;;;;;4.72;2.53;;;;;;;18.55;63.16;100364.91;6135888;23;20442;-71
2023/07/15 04:23:18;;;;;;;4.72;2.67;;;;;;;18.89;62.41;100369.31;6160458;23;20013;-70
2023/07/15 04:25:45;;;;;;;5.50;2.50;;;;;;;19.17;61.35;100368.66;6159475;23;20009;-70
2023/07/15 04:28:12;;;;;;;3.88;2.60;;;;;;;19.47;60.69;100377.69;6161099;23;20308;-70
2023/07/15 04:30:38;;;;;;;6.68;2.50;;;;;;;19.87;59.19;100370.97;6160247;23;20039;-71
2023/07/15 04:33:03;;;;;;;6.40;2.75;;;;;;;20.18;59.10;100378.94;6185122;23;20004;-70
2023/07/15 04:35:28;;;;;;;6.90;2.65;;;;;;;20.57;58.22;100377.47;6181706;23;20024;-70
2023/07/15 04:37:54;;;;;;;6.00;2.88;;;;;;;21.07;54.90;100378.84;6133235;23;20091;-69
2023/07/15 04:40:19;;;;;;;5.93;2.53;;;;;;;21.28;54.20;100389.09;6158767;23;20067;-69
2023/07/15 04:42:45;;;;;;;6.40;2.58;;;;;;;21.59;53.16;100392.47;6158755;23;20159;-69
2023/07/15 04:45:10;;;;;;;8.40;2.90;;;;;;;21.69;53.88;100396.22;6134818;23;20089;-69
2023/07/15 04:47:37;;;;;;;3.70;2.28;;;;;;;21.93;53.29;100395.59;6135178;23;20014;-70
2023/07/15 04:50:03;;;;;;;4.88;2.38;;;;;;;22.37;52.82;100391.78;6135659;23;20461;-68
2023/07/15 04:52:28;;;;;;;6.93;2.92;;;;;;;22.71;51.62;100399.25;6159688;23;20017;-68
2023/07/15 04:54:53;;;;;;;4.60;3.00;;;;;;;22.95;51.90;100404.69;6159554;23;20012;-68
2023/07/15 04:57:19;;;;;;;4.82;2.58;;;;;;;23.03;51.38;100397.00;6185315;23;20354;-68
2023/07/15 04:59:46;;;;;;;5.75;2.70;;;;;;;23.33;53.51;100395.75;6160099;23;20308;-68
2023/07/15 05:02:11;;;;;;;6.32;2.60;;;;;;;23.33;51.45;100396.63;6160534;23;20085;-68
2023/07/15 05:04:37;;;;;;;4.80;2.50;;;;;;;23.73;49.53;100395.50;6161183;23;20091;-68
2023/07/15 05:07:02;;;;;;;5.50;2.70;;;;;;;24.01;50.49;100397.00;6136167;23;20008;-68
2023/07/15 05:09:32;;;;;;;4.80;2.97;;;;;;;24.26;48.71;100396.97;6135490;23;20403;-68
2023/07/15 05:11:57;;;;;;;5.15;3.15;;;;;;;24.43;49.49;100395.69;6162481;23;20019;-68
2023/07/15 05:15:24;;;;;;;;;;;;;;;;;;;;;
2023/07/15 05:17:50;;;;;;;7.03;3.10;;;;;;;25.00;48.36;100399.31;6192069;23;20088;-68
2023/07/15 05:20:18;;;;;;;6.00;3.20;;;;;;;25.27;46.19;100398.91;6160448;23;20427;-68
2023/07/15 05:22:44;;;;;;;6.50;3.10;;;;;;;25.34;45.29;100396.59;6136230;23;20004;-68
2023/07/15 05:25:09;;;;;;;6.80;3.40;;;;;;;25.21;44.97;100397.59;6161521;23;20023;-68
2023/07/15 05:27:35;;;;;;;4.90;2.90;;;;;;;25.29;44.66;100399.63;6138031;23;20016;-68
2023/07/15 05:30:00;;;;;;;6.15;2.50;;;;;;;25.63;44.09;100391.56;6162572;23;20086;-68
2023/07/15 05:32:25;;;;;;;7.72;3.03;;;;;;;25.63;44.26;100393.38;6162303;23;20405;-68
2023/07/15 05:34:51;;;;;;;8.35;2.85;;;;;;;25.81;43.81;100386.47;6137408;23;20308;-68
2023/07/15 05:37:16;;;;;;;7.15;2.70;;;;;;;25.85;42.80;100395.13;6185812;23;20004;-68
2023/07/15 05:39:48;;;;;;;7.72;2.53;;;;;;;25.68;42.14;100400.06;6162184;23;20012;-68
2023/07/15 05:42:13;;;;;;;5.15;2.10;;;;;;;25.50;43.73;100399.75;6186498;23;20012;-68
2023/07/15 05:44:39;;;;;;;6.18;2.70;;;;;;;25.89;43.27;100394.75;6136422;23;20099;-68
2023/07/15 05:47:06;;;;;;;6.45;2.50;;;;;;;25.84;43.21;100410.38;6161017;23;20001;-68
2023/07/15 05:49:32;;;;;;;5.28;2.47;;;;;;;25.97;42.89;100404.00;6161964;23;20308;-68
2023/07/15 05:51:57;;;;;;;4.00;2.20;;;;;;;26.08;42.71;100403.97;6162280;23;20016;-68
2023/07/15 05:54:23;;;;;;;7.97;2.40;;;;;;;26.33;42.12;100409.94;6185398;23;20016;-68
2023/07/15 05:56:48;;;;;;;5.95;2.63;;;;;;;26.76;41.89;100407.09;6161952;23;20012;-68
2023/07/15 05:59:14;;;;;;;4.72;2.30;;;;;;;27.41;41.82;100403.28;6160946;23;20016;-68
2023/07/15 06:01:41;;;;;;;7.00;2.15;;;;;;;28.10;39.87;100413.16;6186989;23;20378;-68
2023/07/15 06:04:07;;;;;;;8.93;2.30;;;;;;;28.55;39.58;100410.81;6137802;23;20005;-68
2023/07/15 06:06:32;;;;;;;2.85;2.13;;;;;;;28.78;37.49;100411.38;6136996;23;20095;-68
2023/07/15 06:08:58;;;;;;;4.35;2.47;;;;;;;29.27;38.12;100413.88;6160029;23;20022;-68
2023/07/15 06:11:23;;;;;;;4.70;2.17;;;;;;;29.24;36.86;100401.53;6136676;23;20091;-68
2023/07/15 06:13:49;;;;;;;7.10;2.60;;;;;;;29.43;36.31;100414.06;6160580;23;20086;-68
2023/07/15 06:16:14;;;;;;;6.25;2.28;;;;;;;29.45;36.46;100405.81;6137419;23;20018;-68
2023/07/15 06:18:40;;;;;;;4.63;2.20;;;;;;;29.36;36.44;100423.75;6161752;23;20031;-68
2023/07/15 06:21:07;;;;;;;6.88;2.42;;;;;;;29.10;37.18;100420.88;6135971;23;20012;-68
2023/07/15 06:23:33;;;;;;;6.07;2.35;;;;;;;28.95;37.46;100418.69;6187022;23;20001;-68
2023/07/15 06:25:58;;;;;;;5.20;2.30;;;;;;;29.32;37.64;100417.84;6160510;23;20066;-68
2023/07/15 06:28:24;;;;;;;4.63;2.20;;;;;;;30.02;37.83;100421.78;6161759;23;20330;-68
2023/07/15 06:31:06;;;;;;;4.18;2.00;;;;;;;30.76;38.07;100425.06;6159628;23;20012;-68
2023/07/15 06:33:33;;;;;;;6.25;1.85;;;;;;;30.56;36.99;100429.84;6185741;23;20008;-68
2023/07/15 06:35:59;;;;;;;5.10;2.03;;;;;;;30.86;36.64;100420.38;6155768;23;20009;-68
2023/07/15 06:38:26;;;;;;;3.55;1.55;;;;;;;30.34;37.97;100426.63;6158190;23;20354;-69
2023/07/15 06:40:58;;;;;;;3.72;1.42;;;;;;;28.98;40.84;100426.47;6157469;23;20013;-68
2023/07/15 06:43:47;;;;;;;4.90;1.52;;;;;;;28.12;43.30;100419.25;6186557;23;20016;-70
2023/07/15 06:46:13;;;;;;;;;;;;;;;28.49;42.88;100417.66;6188424;23;20311;-70
2023/07/15 06:48:39;;;;;;;4.68;1.30;;;;;;;26.95;46.05;100422.50;6185551;23;19912;-69
2023/07/15 06:51:04;;;;;;;3.40;1.50;;;;;;;26.25;47.18;100424.03;6136312;23;20070;-69
2023/07/15 06:53:30;;;;;;;3.10;1.45;;;;;;;25.90;48.88;100425.09;6134832;23;20036;-69
2023/07/15 06:55:55;;;;;;;4.47;1.70;;;;;;;25.70;50.21;100419.59;6161529;23;20042;-69
2023/07/15 06:58:20;;;;;;;3.90;1.40;;;;;;;25.91;51.95;100416.94;6161806;23;20011;-68
2023/07/15 07:00:46;;;;;;;5.00;1.55;;;;;;;25.84;51.76;100410.38;6136071;23;20031;-68
2023/07/15 07:03:11;;;;;;;3.17;1.58;;;;;;;26.10;52.94;100410.06;6184693;23;20410;-69
2023/07/15 07:05:37;;;;;;;3.97;1.65;;;;;;;25.77;52.09;100410.03;6159057;23;20013;-69
2023/07/15 07:08:03;;;;;;;3.10;1.50;;;;;;;25.62;52.72;100414.00;6159205;23;20012;-69
2023/07/15 07:10:28;;;;;;;4.43;1.55;;;;;;;25.55;52.58;100427.03;6158816;23;20374;-68
2023/07/15 07:12:53;;;;;;;4.88;2.00;;;;;;;25.46;51.75;100414.38;6159709;23;20019;-69
2023/07/15 07:15:19;;;;;;;3.38;1.45;;;;;;;25.23;52.28;100405.50;6136161;23;20018;-68
2023/07/15 07:17:44;;;;;;;13.40;2.55;;;;;;;24.96;53.24;100413.91;6137572;23;20489;-68
2023/07/15 07:20:10;;;;;;;5.65;1.80;;;;;;;24.83;53.01;100414.88;6161852;23;20020;-68
2023/07/15 07:22:35;;;;;;;4.82;1.67;;;;;;;24.63;53.35;100413.75;6187527;23;20022;-68
2023/07/15 07:25:01;;;;;;;2.35;1.55;;;;;;;24.63;53.20;100410.25;6161549;23;20107;-68
2023/07/15 07:27:26;;;;;;;5.78;1.40;;;;;;;24.66;54.18;100412.66;6137830;23;20013;-69
2023/07/15 07:29:52;;;;;;;4.18;1.55;;;;;;;24.67;54.78;100419.75;6138255;23;20035;-68
2023/07/15 07:32:18;;;;;;;6.60;1.70;;;;;;;24.69;53.73;100421.31;6162592;23;20023;-68
2023/07/15 07:34:43;;;;;;;2.67;1.50;;;;;;;24.73;55.16;100429.97;6200315;22;20098;-67
2023/07/15 07:37:09;;;;;;;6.38;1.80;;;;;;;24.73;52.99;100425.47;6187595;22;20024;-68
2023/07/15 07:39:34;;;;;;;3.30;1.50;;;;;;;24.81;53.77;100430.22;6186918;23;20229;-68
2023/07/15 07:42:02;;;;;;;3.30;1.45;;;;;;;24.73;53.43;100440.69;6152388;22;20016;-68
2023/07/15 07:44:28;;;;;;;4.57;1.73;;;;;;;24.64;54.32;100436.91;6192244;23;20458;-69
2023/07/15 07:46:53;;;;;;;4.22;1.60;;;;;;;24.42;54.08;100432.28;6165075;23;20061;-68
2023/07/15 07:49:19;;;;;;;2.88;1.67;;;;;;;24.42;55.25;100429.63;6175212;22;20021;-68
2023/07/15 08:32:38;;;;;;;3.55;1.27;;;;;;;25.08;57.45;100440.59;6218074;22;20931;-69
2023/07/15 08:37:40;;;;;;;4.63;1.52;;;;;;;25.07;56.19;100460.34;6244037;22;20035;-69
2023/07/15 08:45:17;;;;;;;3.33;1.58;;;;;;;24.58;56.15;100450.72;6222821;22;20032;-68
2023/07/15 08:50:18;;;;;;;1.77;1.40;;;;;;;24.37;57.14;100453.25;6268923;22;20034;-68
2023/07/15 08:52:44;;;;;;;4.55;1.30;;;;;;;24.30;57.55;100476.09;6197825;22;20011;-68
2023/07/15 08:55:10;;;;;;;5.82;1.35;;;;;;;24.15;58.33;100476.28;6247897;22;20007;-68
2023/07/15 09:00:57;;;;;;;5.57;1.42;;;;;;;23.90;58.92;100482.59;6277269;22;20057;-68
2023/07/15 09:03:23;;;;;;;3.25;1.60;;;;;;;23.79;58.89;100479.81;6199461;22;20421;-68
2023/07/15 09:05:49;;;;;;;6.38;1.92;;;;;;;23.72;59.59;100491.91;6224738;22;20027;-68
2023/07/15 09:08:16;;;;;;;5.00;1.70;;;;;;;23.72;59.58;100503.50;6250033;22;20012;-67
2023/07/15 09:10:55;;;;;;;4.07;1.70;;;;;;;23.65;58.40;100502.22;6199488;22;20094;-68
2023/07/15 09:13:24;;;;;;;6.55;1.90;;;;;;;23.56;59.51;100502.88;6224182;22;20031;-68
2023/07/15 09:15:51;;;;;;;5.20;2.08;;;;;;;23.50;58.84;100501.50;6248581;22;20000;-69
2023/07/15 09:18:17;;;;;;;4.20;2.00;;;;;;;23.38;59.01;100513.94;6223024;22;20015;-68
2023/07/15 09:20:42;;;;;;;4.18;1.80;;;;;;;23.29;59.14;100510.09;6198153;22;20085;-68
2023/07/15 09:23:08;;;;;;;4.40;1.60;;;;;;;23.21;59.54;100501.75;6198723;22;20035;-68
2023/07/15 09:25:35;;;;;;;5.88;2.25;;;;;;;23.16;59.14;100496.72;6222566;22;20058;-68
2023/07/15 09:28:01;;;;;;;2.72;1.95;;;;;;;23.18;60.48;100494.78;6198684;22;20011;-68
2023/07/15 09:30:27;;;;;;;6.25;1.90;;;;;;;23.17;59.30;100494.91;6198619;22;20010;-68
2023/07/15 09:32:52;;;;;;;5.10;1.90;;;;;;;23.20;59.75;100485.81;6221994;22;20015;-68
2023/07/15 09:35:20;;;;;;;8.80;2.38;;;;;;;23.24;60.12;100488.16;6247430;22;20088;-67
2023/07/15 09:37:47;;;;;;;4.47;1.67;;;;;;;23.26;60.16;100478.22;6248567;22;20011;-67
2023/07/15 09:40:13;;;;;;;4.47;2.22;;;;;;;23.29;59.04;100475.34;6222942;22;20012;-68
2023/07/15 09:42:52;;;;;;;4.57;2.13;;;;;;;23.29;58.80;100496.72;6223360;22;20014;-68
2023/07/15 09:45:34;;;;;;;5.97;1.92;;;;;;;23.29;58.43;100496.72;6248161;22;20010;-69
2023/07/15 09:48:08;;;;;;;6.40;1.80;;;;;;;23.28;59.04;100512.88;6223187;22;20014;-68
2023/07/15 09:50:35;;;;;;;4.82;1.83;;;;;;;23.29;59.36;100510.09;6223397;22;20153;-68
2023/07/15 09:53:02;;;;;;;5.20;1.80;;;;;;;23.29;59.21;100511.91;6248824;22;20003;-68
2023/07/15 09:55:30;;;;;;;3.13;1.58;;;;;;;23.38;61.16;100510.41;6246585;22;20038;-67
2023/07/15 09:58:23;;;;;;;5.10;2.03;;;;;;;23.43;58.92;100517.13;6246660;22;20011;-68
2023/07/15 10:01:02;;;;;;;8.95;1.88;;;;;;;23.44;60.06;100521.50;6232616;22;20004;-68
2023/07/15 10:03:41;;;;;;;6.67;1.87;;;;;;;23.38;58.41;100529.13;6248382;22;20015;-69
2023/07/15 10:06:07;;;;;;;5.82;1.90;;;;;;;23.23;59.13;100549.75;6248719;22;20031;-68
2023/07/15 10:08:34;;;;;;;4.60;1.77;;;;;;;23.07;60.16;100534.75;6222990;22;20015;-68
2023/07/15 10:11:00;;;;;;;4.25;1.58;;;;;;;22.99;60.69;100526.41;6222552;22;20103;-69
2023/07/15 10:13:26;;;;;;;6.30;1.60;;;;;;;22.97;61.78;100534.53;6223400;22;20415;-69
2023/07/15 10:15:52;;;;;;;4.70;2.10;;;;;;;22.97;60.97;100528.31;6197591;22;20405;-68
2023/07/15 10:18:19;;;;;;;7.13;2.03;;;;;;;22.92;62.08;100538.50;6247415;22;20015;-68
2023/07/15 10:20:55;;;;;;;4.40;1.92;;;;;;;22.84;62.61;100517.63;6247964;22;20015;-68
2023/07/15 10:23:26;;;;;;;4.07;1.75;;;;;;;22.76;63.72;100530.69;6248269;22;20008;-67
2023/07/15 10:26:06;;;;;;;4.38;1.77;;;;;;;22.77;64.33;100509.19;6221952;22;20452;-68
2023/07/15 10:28:37;;;;;;;4.13;1.63;;;;;;;22.68;66.11;100488.44;6222938;22;20008;-68
2023/07/15 10:31:14;;;;;;;5.32;1.92;;;;;;;22.72;65.42;100489.09;6247775;22;20000;-68
2023/07/15 10:33:56;;;;;;;5.90;1.75;;;;;;;22.65;64.67;100496.66;6247552;22;20003;-67
2023/07/15 10:36:44;;;;;;;4.82;1.88;;;;;;;22.61;66.05;100504.03;6247931;22;20064;-67
2023/07/15 10:39:20;;;;;;;4.50;1.80;;;;;;;22.53;67.53;100501.03;6221866;22;20336;-67
2023/07/15 10:41:47;;;;;;;4.07;1.88;;;;;;;22.52;67.05;100495.81;6222640;22;20334;-67
2023/07/15 10:44:26;;;;;;;3.97;1.80;;;;;;;22.61;67.25;100497.84;6247570;22;20057;-67
2023/07/15 10:47:03;;;;;;;5.38;2.10;;;;;;;22.73;67.50;100493.47;6247654;22;20000;-68
2023/07/15 10:49:30;;;;;;;4.97;1.75;;;;;;;22.78;68.63;100491.34;6247635;22;20023;-67
2023/07/15 10:51:56;;;;;;;3.78;1.80;;;;;;;22.91;69.00;100499.38;6222522;22;20007;-67
2023/07/15 10:54:26;;;;;;;3.97;1.65;;;;;;;22.99;69.67;100505.03;6221608;22;20008;-67
2023/07/15 10:56:53;;;;;;;4.05;1.92;;;;;;;23.04;67.12;100510.06;6247551;22;20091;-69
2023/07/15 10:59:23;;;;;;;4.32;1.83;;;;;;;22.98;65.50;100503.31;6247445;22;20072;-69
2023/07/15 11:01:48;;;;;;;3.13;1.70;;;;;;;22.92;64.64;100503.75;6247956;22;20069;-69
2023/07/15 11:04:19;;;;;;;4.22;1.88;;;;;;;22.92;65.88;100514.44;6221453;22;20016;-69
2023/07/15 11:06:45;;;;;;;5.40;1.77;;;;;;;22.89;65.57;100517.34;6247628;22;20004;-70
2023/07/15 11:09:15;;;;;;;5.60;2.00;;;;;;;22.86;65.16;100530.88;6221218;22;20061;-69
2023/07/15 11:11:41;;;;;;;5.00;2.33;;;;;;;22.83;68.24;100530.13;6247322;22;20337;-69
2023/07/15 11:14:27;;;;;;;4.25;1.75;;;;;;;22.82;64.00;100517.72;6222326;22;20007;-70
2023/07/15 11:16:58;;;;;;;5.75;2.40;;;;;;;22.78;63.33;100513.56;6247945;22;20047;-70
2023/07/15 11:19:27;;;;;;;3.45;1.65;;;;;;;22.75;63.53;100526.28;6247193;22;20137;-70
2023/07/15 11:21:54;;;;;;;3.92;1.80;;;;;;;22.72;64.32;100513.97;6197798;22;20103;-70
2023/07/15 11:24:24;;;;;;;6.38;2.10;;;;;;;22.71;63.97;100512.25;6221846;22;20011;-70
2023/07/15 11:26:59;;;;;;;2.95;1.80;;;;;;;22.71;63.43;100514.09;6222110;22;20366;-71
2023/07/15 11:29:25;;;;;;;4.03;2.10;;;;;;;22.72;63.08;100502.47;6246137;22;20046;-70
2023/07/15 11:31:54;;;;;;;4.72;1.90;;;;;;;22.74;63.41;100493.38;6222673;22;20095;-70
2023/07/15 11:34:24;;;;;;;4.43;2.00;;;;;;;22.83;63.87;100495.41;6247041;22;20398;-70
2023/07/15 11:36:51;;;;;;;;;;;;;;;22.99;63.23;100497.03;6245680;22;20004;-70
2023/07/15 11:39:17;;;;;;;3.30;1.77;;;;;;;22.99;61.38;100495.19;6220958;22;20198;-70
2023/07/15 11:41:44;;;;;;;3.13;1.67;;;;;;;23.02;62.38;100494.13;6247547;22;20000;-70
2023/07/15 11:44:12;;;;;;;7.55;2.13;;;;;;;23.07;63.61;100481.28;6221969;22;20456;-70
2023/07/15 11:46:39;;;;;;;4.75;1.77;;;;;;;23.14;63.35;100487.97;6246892;22;20074;-70
2023/07/15 11:49:05;;;;;;;3.38;1.70;;;;;;;23.20;61.85;100480.47;6190533;23;20036;-71
2023/07/15 11:51:32;;;;;;;5.15;1.70;;;;;;;23.29;62.50;100477.16;6216788;23;20008;-69
2023/07/15 11:53:59;;;;;;;4.57;2.60;;;;;;;23.38;60.94;100472.97;6189819;22;20023;-70
2023/07/15 11:56:41;;;;;;;5.63;1.85;;;;;;;23.46;61.16;100470.59;6241371;23;20095;-70
2023/07/15 11:59:08;;;;;;;5.32;2.10;;;;;;;23.52;60.77;100471.00;6241669;23;20086;-70
2023/07/15 12:01:37;;;;;;;5.28;1.80;;;;;;;23.64;62.03;100465.75;6241646;23;20216;-70
2023/07/15 12:04:14;;;;;;;4.55;2.22;;;;;;;23.69;61.40;100460.91;6240589;22;20012;-70
2023/07/15 12:06:52;;;;;;;3.90;2.05;;;;;;;23.76;61.99;100464.84;6241625;23;20132;-69
2023/07/15 12:09:18;;;;;;;5.40;2.15;;;;;;;23.74;59.91;100455.22;6214797;23;20018;-70
2023/07/15 12:11:45;;;;;;;5.07;2.10;;;;;;;23.72;60.91;100460.69;6217290;23;20094;-70
2023/07/15 12:14:13;;;;;;;3.90;2.00;;;;;;;23.72;60.89;100449.13;6242068;22;20012;-70
2023/07/15 12:16:39;;;;;;;4.10;1.80;;;;;;;23.80;61.71;100446.75;6217234;23;20036;-70
2023/07/15 12:19:07;;;;;;;5.22;2.08;;;;;;;23.82;61.24;100443.00;6216601;23;20299;-69
2023/07/15 12:21:32;;;;;;;5.70;2.20;;;;;;;24.01;61.21;100434.47;6240212;23;20465;-70
2023/07/15 12:23:58;;;;;;;3.90;2.00;;;;;;;24.11;61.16;100440.00;6215730;22;20082;-70